Time;durP1;ratioP1;P1;durP2;ratioP2;P2;SDS_P1;SDS_P2;PMS_P1;PMS_P2;Temp;Humidity;BMP_temperature;BMP_pressure;BME280_temperature;BME280_humidity;BME280_pressure;Samples;Min_cycle;Max_cycle;Signal;HPM_P1;HPM_P2
2023/06/11 00:02:04;;;;;;;9.13;7.72;;;;;;;25.09;51.91;100376.31;5007783;28;20210;-70
2023/06/11 00:04:34;;;;;;;8.45;7.25;;;;;;;25.07;51.50;100375.72;4996976;28;20199;-69
2023/06/11 00:07:05;;;;;;;9.50;8.20;;;;;;;25.01;51.72;100373.16;5000530;28;20209;-70
2023/06/11 00:09:33;;;;;;;8.60;7.20;;;;;;;24.96;51.74;100375.81;5001741;28;20292;-71
2023/06/11 00:12:02;;;;;;;9.88;7.15;;;;;;;24.90;51.59;100368.59;4998682;28;20691;-73
2023/06/11 00:14:30;;;;;;;9.68;7.60;;;;;;;24.89;51.72;100375.91;4999782;28;20669;-70
2023/06/11 00:16:58;;;;;;;8.98;6.95;;;;;;;24.93;51.97;100377.09;5000090;28;20998;-69
2023/06/11 00:19:29;;;;;;;11.93;7.40;;;;;;;24.91;51.72;100372.94;5002108;28;20265;-69
2023/06/11 00:21:58;;;;;;;8.05;6.85;;;;;;;24.90;51.85;100376.72;5004034;28;20250;-70
2023/06/11 00:24:27;;;;;;;8.93;7.50;;;;;;;24.91;51.82;100378.38;5003260;28;20662;-70
2023/06/11 00:26:55;;;;;;;9.70;7.47;;;;;;;24.93;51.62;100379.81;4989153;28;20664;-70
2023/06/11 00:29:24;;;;;;;8.15;7.22;;;;;;;24.93;51.63;100371.69;5003165;28;20242;-69
2023/06/11 00:31:53;;;;;;;8.30;7.20;;;;;;;24.91;51.68;100379.22;5001421;28;20201;-70
2023/06/11 00:34:21;;;;;;;13.00;7.18;;;;;;;24.93;51.59;100387.13;5002714;28;20206;-70
2023/06/11 00:36:48;;;;;;;7.95;6.78;;;;;;;24.91;51.62;100371.09;5000926;28;20206;-70
2023/06/11 00:39:16;;;;;;;9.38;6.65;;;;;;;24.91;51.14;100381.94;5000709;28;20265;-72
2023/06/11 00:41:45;;;;;;;9.93;7.03;;;;;;;24.91;50.91;100379.22;5003087;28;20252;-72
2023/06/11 00:44:17;;;;;;;8.52;7.30;;;;;;;24.90;51.08;100387.59;5003809;28;20205;-69
2023/06/11 00:46:48;;;;;;;7.60;6.20;;;;;;;24.87;50.73;100380.78;5001050;28;20683;-70
2023/06/11 00:49:16;;;;;;;9.70;7.25;;;;;;;24.88;51.02;100378.88;5001004;28;20755;-71
2023/06/11 00:51:45;;;;;;;9.93;7.53;;;;;;;24.81;51.97;100392.56;4999016;28;20241;-70
2023/06/11 00:54:16;;;;;;;10.20;7.82;;;;;;;24.74;52.28;100389.19;5005837;28;20664;-69
2023/06/11 00:56:44;;;;;;;9.25;8.00;;;;;;;24.69;52.43;100381.81;4999248;28;20665;-71
2023/06/11 00:59:13;;;;;;;11.35;8.18;;;;;;;24.69;52.99;100391.81;5003863;28;20763;-70
2023/06/11 01:01:46;;;;;;;9.35;8.23;;;;;;;24.64;53.05;100389.00;5001740;28;20209;-71
2023/06/11 01:04:18;;;;;;;15.07;9.10;;;;;;;24.63;53.02;100384.63;5002870;28;20522;-70
2023/06/11 01:06:49;;;;;;;14.05;8.88;;;;;;;24.63;53.65;100387.34;4999649;28;20205;-70
2023/06/11 01:09:20;;;;;;;12.52;8.13;;;;;;;24.62;53.31;100388.44;5008107;28;20500;-70
2023/06/11 01:11:49;;;;;;;11.32;8.68;;;;;;;24.59;53.96;100391.63;5000963;28;20210;-70
2023/06/11 01:14:17;;;;;;;12.77;8.60;;;;;;;24.51;53.57;100394.72;4998624;28;20556;-72
2023/06/11 01:16:48;;;;;;;12.68;9.10;;;;;;;24.43;54.99;100389.69;5002838;28;20233;-69
2023/06/11 01:19:37;;;;;;;11.70;8.32;;;;;;;24.38;54.21;100393.94;5004099;28;20239;-69
2023/06/11 01:22:13;;;;;;;11.20;8.65;;;;;;;24.37;54.16;100397.69;4997620;28;20342;-70
2023/06/11 01:25:00;;;;;;;12.00;9.13;;;;;;;24.38;55.15;100396.63;4996420;28;20608;-70
2023/06/11 01:27:42;;;;;;;10.82;8.73;;;;;;;24.30;55.19;100401.59;4998675;28;20222;-69
2023/06/11 01:30:17;;;;;;;8.75;7.82;;;;;;;24.22;54.83;100389.25;5001703;28;20229;-69
2023/06/11 01:32:47;;;;;;;10.65;8.40;;;;;;;24.25;54.82;100402.34;5003033;28;21056;-69
2023/06/11 01:35:15;;;;;;;11.32;9.23;;;;;;;24.21;55.99;100403.88;5001866;28;20213;-71
2023/06/11 01:37:45;;;;;;;10.57;8.70;;;;;;;24.02;56.62;100394.22;4997610;28;20210;-69
2023/06/11 01:40:14;;;;;;;13.48;8.43;;;;;;;23.89;56.46;100403.44;4997399;28;20249;-71
2023/06/11 01:42:44;;;;;;;14.57;8.95;;;;;;;23.91;56.62;100404.03;4999308;28;20213;-70
2023/06/11 01:45:13;;;;;;;11.38;9.10;;;;;;;23.84;57.10;100405.19;4999469;28;20257;-71
2023/06/11 01:47:41;;;;;;;10.77;8.60;;;;;;;23.76;56.63;100400.94;4996968;28;20249;-70
2023/06/11 01:50:09;;;;;;;11.60;8.63;;;;;;;23.78;56.53;100390.72;4999719;28;20240;-70
2023/06/11 01:52:38;;;;;;;9.07;8.18;;;;;;;23.85;56.10;100398.72;5000015;28;20205;-70
2023/06/11 01:55:07;;;;;;;10.95;8.23;;;;;;;23.88;55.52;100404.47;5000032;28;20201;-69
2023/06/11 01:57:37;;;;;;;11.15;8.57;;;;;;;23.94;55.24;100400.00;4997061;28;20206;-69
2023/06/11 02:00:09;;;;;;;10.98;8.10;;;;;;;23.98;55.00;100407.41;5004532;28;20235;-69
2023/06/11 02:02:38;;;;;;;10.57;8.90;;;;;;;24.01;54.64;100406.13;4996539;28;20288;-69
2023/06/11 02:05:07;;;;;;;11.27;8.15;;;;;;;24.00;54.94;100399.06;4995561;28;20290;-71
2023/06/11 02:07:36;;;;;;;10.10;7.70;;;;;;;23.95;54.98;100391.63;4997527;28;20209;-71
2023/06/11 02:10:04;;;;;;;10.30;8.35;;;;;;;23.90;55.82;100399.66;5002952;28;20550;-69
2023/06/11 02:12:32;;;;;;;12.38;8.25;;;;;;;23.83;55.41;100408.97;5000977;28;20229;-69
2023/06/11 02:14:59;;;;;;;10.38;8.32;;;;;;;23.84;55.13;100414.13;5001460;28;20205;-70
2023/06/11 02:17:27;;;;;;;9.77;7.82;;;;;;;23.83;55.40;100420.63;4999376;28;20201;-70
2023/06/11 02:19:56;;;;;;;10.88;7.78;;;;;;;23.81;55.23;100422.75;4995186;28;20754;-71
2023/06/11 02:22:24;;;;;;;11.10;7.90;;;;;;;23.81;55.17;100421.91;5004487;28;20234;-71
2023/06/11 02:24:51;;;;;;;12.15;8.30;;;;;;;23.86;55.09;100422.03;5002831;28;20284;-69
2023/06/11 02:27:19;;;;;;;9.88;8.75;;;;;;;23.82;55.28;100424.41;4999703;28;20233;-73
2023/06/11 02:29:47;;;;;;;9.23;7.90;;;;;;;23.82;55.51;100421.69;5002567;28;20265;-69
2023/06/11 02:32:15;;;;;;;9.65;8.65;;;;;;;23.80;55.80;100423.81;4998982;28;20206;-72
2023/06/11 02:34:42;;;;;;;10.98;8.73;;;;;;;23.79;55.60;100426.75;5003268;28;20504;-70
2023/06/11 02:37:12;;;;;;;12.65;8.43;;;;;;;23.76;56.01;100424.50;5002066;28;20631;-70
2023/06/11 02:39:39;;;;;;;10.07;8.77;;;;;;;23.76;55.69;100435.31;5002482;28;20304;-71
2023/06/11 02:42:07;;;;;;;10.13;8.57;;;;;;;23.76;55.65;100435.31;5002406;28;20212;-69
2023/06/11 02:44:35;;;;;;;10.52;8.63;;;;;;;23.74;55.65;100422.03;5005167;28;20215;-70
2023/06/11 02:47:03;;;;;;;10.40;8.98;;;;;;;23.75;55.92;100426.38;5005771;28;20218;-70
2023/06/11 02:49:31;;;;;;;14.95;8.85;;;;;;;23.69;56.14;100431.91;5004767;28;20206;-70
2023/06/11 02:51:58;;;;;;;13.40;8.55;;;;;;;23.68;56.21;100435.66;5002340;28;20221;-70
2023/06/11 02:54:27;;;;;;;10.30;8.87;;;;;;;23.65;55.95;100436.16;5005742;28;20214;-72
2023/06/11 02:56:55;;;;;;;9.75;8.75;;;;;;;23.62;55.96;100440.16;5001486;28;20236;-70
2023/06/11 02:59:23;;;;;;;11.15;9.00;;;;;;;23.55;56.34;100437.56;5004623;28;20593;-70
2023/06/11 03:01:51;;;;;;;9.15;8.15;;;;;;;23.57;56.05;100438.13;5000903;28;20237;-70
2023/06/11 03:04:18;;;;;;;9.37;8.27;;;;;;;23.56;55.83;100441.94;5005377;28;20341;-71
2023/06/11 03:06:46;;;;;;;10.75;8.98;;;;;;;23.56;56.11;100441.94;5004246;28;20644;-70
2023/06/11 03:09:14;;;;;;;14.77;9.00;;;;;;;23.50;56.13;100447.41;5002841;28;20232;-69
2023/06/11 03:11:43;;;;;;;11.57;8.63;;;;;;;23.46;56.21;100447.03;5000742;28;20202;-71
2023/06/11 03:14:11;;;;;;;9.27;8.20;;;;;;;23.44;56.07;100446.44;5005001;28;20268;-70
2023/06/11 03:16:38;;;;;;;14.20;9.15;;;;;;;23.42;55.89;100451.25;5003407;28;20205;-69
2023/06/11 03:19:06;;;;;;;11.75;8.75;;;;;;;23.33;56.41;100447.25;5002803;28;20687;-69
2023/06/11 03:21:35;;;;;;;9.63;8.63;;;;;;;23.27;56.44;100456.28;5004825;28;20201;-69
2023/06/11 03:24:03;;;;;;;12.03;8.87;;;;;;;23.24;56.61;100456.75;5005226;28;20202;-70
2023/06/11 03:26:30;;;;;;;10.97;8.50;;;;;;;23.21;56.34;100455.34;5004894;28;20214;-70
2023/06/11 03:29:01;;;;;;;11.50;9.10;;;;;;;23.19;56.47;100452.03;5003914;28;20307;-69
2023/06/11 03:31:29;;;;;;;12.20;8.33;;;;;;;23.18;56.23;100454.97;5001941;28;20292;-69
2023/06/11 03:33:57;;;;;;;14.33;8.87;;;;;;;23.21;56.40;100443.72;5004250;28;20260;-68
2023/06/11 03:36:25;;;;;;;10.37;8.50;;;;;;;23.18;56.53;100454.97;5004224;28;20267;-69
2023/06/11 03:38:53;;;;;;;9.63;8.30;;;;;;;23.15;56.68;100455.44;5005012;28;20200;-70
2023/06/11 03:41:20;;;;;;;10.23;8.37;;;;;;;23.17;56.70;100456.03;5004171;28;20200;-71
2023/06/11 03:43:48;;;;;;;10.63;9.13;;;;;;;23.19;56.53;100448.50;5004831;28;20243;-69
2023/06/11 03:46:19;;;;;;;9.73;8.17;;;;;;;23.21;56.58;100452.66;5000901;28;20729;-71
2023/06/11 03:48:47;;;;;;;10.57;8.87;;;;;;;23.20;56.53;100458.28;5002924;28;20216;-69
2023/06/11 03:51:15;;;;;;;9.45;8.32;;;;;;;23.20;56.68;100458.28;5002634;28;20257;-70
2023/06/11 03:53:43;;;;;;;11.13;8.70;;;;;;;23.20;56.57;100461.00;5003618;28;20205;-69
2023/06/11 03:56:10;;;;;;;10.77;7.77;;;;;;;23.16;56.97;100460.63;5005053;28;20243;-70
2023/06/11 03:58:38;;;;;;;10.37;8.77;;;;;;;23.16;56.54;100459.78;5002434;28;20198;-69
2023/06/11 04:01:06;;;;;;;11.68;9.57;;;;;;;23.12;57.74;100464.03;5006422;28;20222;-69
2023/06/11 04:03:35;;;;;;;10.20;8.30;;;;;;;23.06;57.57;100471.16;5001742;28;20238;-69
2023/06/11 04:06:03;;;;;;;12.40;8.20;;;;;;;23.03;57.57;100478.94;4998994;28;20217;-69
2023/06/11 04:08:31;;;;;;;11.93;9.30;;;;;;;23.04;57.06;100477.88;4997704;28;20999;-69
2023/06/11 04:10:59;;;;;;;10.80;8.83;;;;;;;23.07;57.11;100480.09;5000802;28;20224;-70
2023/06/11 04:13:26;;;;;;;13.40;9.07;;;;;;;23.10;57.24;100476.94;5005914;28;20209;-70
2023/06/11 04:15:54;;;;;;;10.17;8.20;;;;;;;23.07;57.47;100480.09;5001836;28;20201;-69
2023/06/11 04:18:23;;;;;;;12.20;9.03;;;;;;;23.10;57.13;100471.53;5007410;28;20321;-70
2023/06/11 04:20:52;;;;;;;10.90;8.30;;;;;;;23.08;57.02;100476.34;4998901;28;20229;-71
2023/06/11 04:23:20;;;;;;;10.37;8.93;;;;;;;23.11;57.05;100471.31;5001645;28;20219;-69
2023/06/11 04:25:48;;;;;;;11.30;8.63;;;;;;;23.11;57.46;100481.31;4999314;28;20217;-69
2023/06/11 04:28:17;;;;;;;9.80;8.77;;;;;;;23.13;57.08;100473.78;5001509;28;20253;-70
2023/06/11 04:30:44;;;;;;;10.93;8.63;;;;;;;23.14;56.99;100472.72;5006342;28;20280;-69
2023/06/11 04:33:15;;;;;;;11.63;8.17;;;;;;;23.11;57.15;100481.31;5000613;28;20263;-68
2023/06/11 04:35:43;;;;;;;10.00;8.10;;;;;;;23.12;57.08;100477.53;5000087;28;20205;-69
2023/06/11 04:38:13;;;;;;;11.63;7.97;;;;;;;23.13;57.20;100474.59;5000049;28;20218;-69
2023/06/11 04:40:40;;;;;;;10.73;8.07;;;;;;;23.14;57.01;100475.41;4998727;28;20233;-69
2023/06/11 04:43:08;;;;;;;11.93;7.83;;;;;;;23.15;56.82;100477.06;5002500;28;20256;-69
2023/06/11 04:45:36;;;;;;;14.63;8.37;;;;;;;23.19;56.79;100476.41;5004748;28;20244;-69
2023/06/11 04:48:04;;;;;;;9.23;7.80;;;;;;;23.22;57.06;100472.38;5002434;28;21067;-69
2023/06/11 04:50:32;;;;;;;14.27;8.23;;;;;;;23.12;57.65;100472.13;5002132;28;20206;-69
2023/06/11 04:53:01;;;;;;;11.63;7.73;;;;;;;23.07;56.89;100480.94;5003420;28;20246;-71
2023/06/11 04:55:38;;;;;;;10.70;7.63;;;;;;;23.12;56.89;100480.25;5003138;28;20202;-69
2023/06/11 04:58:06;;;;;;;14.23;9.27;;;;;;;23.15;56.94;100480.59;5001968;28;20241;-69
2023/06/11 05:00:36;;;;;;;10.10;7.83;;;;;;;23.19;56.47;100479.09;5006897;28;20260;-69
2023/06/11 05:03:04;;;;;;;10.00;7.57;;;;;;;23.27;57.07;100476.06;5006050;28;20331;-69
2023/06/11 05:05:32;;;;;;;14.70;7.67;;;;;;;23.26;56.61;100473.59;5001544;28;20312;-70
2023/06/11 05:08:00;;;;;;;8.40;7.43;;;;;;;23.27;56.71;100472.53;4998262;28;20666;-69
2023/06/11 05:10:27;;;;;;;10.17;7.77;;;;;;;23.26;56.40;100482.53;4997625;28;20299;-69
2023/06/11 05:12:58;;;;;;;10.02;8.38;;;;;;;23.30;56.54;100479.38;5002450;28;20208;-70
2023/06/11 05:15:25;;;;;;;8.93;7.13;;;;;;;23.37;56.67;100486.31;4993121;28;20206;-70
2023/06/11 05:17:53;;;;;;;10.10;8.33;;;;;;;23.38;56.67;100487.97;4999146;28;20216;-70
2023/06/11 05:20:26;;;;;;;11.60;7.67;;;;;;;23.41;56.35;100497.50;5001980;28;20320;-70
2023/06/11 05:22:58;;;;;;;10.27;7.80;;;;;;;23.42;56.81;100494.56;4999428;28;20389;-68
2023/06/11 05:25:28;;;;;;;9.03;7.63;;;;;;;23.43;57.11;100490.81;4997669;28;20213;-71
2023/06/11 05:27:59;;;;;;;10.77;8.15;;;;;;;23.43;56.99;100496.22;5001639;28;20264;-70
2023/06/11 05:30:29;;;;;;;10.23;7.57;;;;;;;23.47;56.36;100502.81;5001596;28;20246;-68
2023/06/11 05:32:58;;;;;;;11.50;7.93;;;;;;;23.52;56.49;100499.44;4997261;28;20202;-69
2023/06/11 05:35:26;;;;;;;8.75;7.53;;;;;;;23.54;56.20;100497.34;5000516;28;20214;-70
2023/06/11 05:37:55;;;;;;;9.57;7.57;;;;;;;23.59;56.03;100500.97;5003167;28;20661;-69
2023/06/11 05:40:23;;;;;;;9.00;7.65;;;;;;;23.63;55.68;100502.19;5002273;28;20233;-70
2023/06/11 05:42:50;;;;;;;9.88;7.45;;;;;;;23.68;55.60;100498.75;5006214;28;20217;-70
2023/06/11 05:45:20;;;;;;;10.60;7.88;;;;;;;23.72;55.56;100509.97;5004352;28;20321;-69
2023/06/11 05:47:48;;;;;;;11.05;7.97;;;;;;;23.73;56.25;100500.78;5005409;28;20288;-71
2023/06/11 05:50:16;;;;;;;11.00;8.48;;;;;;;23.73;55.69;100506.19;5000881;28;20846;-69
2023/06/11 05:52:46;;;;;;;11.75;8.15;;;;;;;23.75;55.43;100502.19;5004049;28;20286;-70
2023/06/11 05:55:16;;;;;;;14.07;7.97;;;;;;;23.79;55.65;100502.56;4997624;28;20289;-68
2023/06/11 05:57:44;;;;;;;10.57;7.85;;;;;;;23.77;56.18;100508.19;5002333;28;20210;-70
2023/06/11 06:00:13;;;;;;;10.20;7.50;;;;;;;23.78;55.82;100514.44;5000275;28;20224;-70
2023/06/11 06:02:43;;;;;;;9.27;7.43;;;;;;;23.82;55.82;100510.22;4988978;28;20909;-70
2023/06/11 06:05:12;;;;;;;8.25;7.30;;;;;;;23.83;55.04;100511.88;4999292;28;20240;-70
2023/06/11 06:07:40;;;;;;;11.40;7.85;;;;;;;23.88;56.13;100509.28;5002239;28;20209;-69
2023/06/11 06:10:08;;;;;;;9.20;6.90;;;;;;;23.87;54.97;100508.44;5000420;28;20210;-70
2023/06/11 06:12:36;;;;;;;7.30;6.40;;;;;;;23.92;54.62;100513.16;4996121;28;20264;-70
2023/06/11 06:15:04;;;;;;;9.10;6.35;;;;;;;23.96;54.15;100522.47;5000180;28;20214;-69
2023/06/11 06:17:32;;;;;;;9.02;6.55;;;;;;;23.99;54.32;100524.72;5001881;28;20210;-69
2023/06/11 06:20:01;;;;;;;8.32;6.50;;;;;;;24.01;53.87;100528.00;4995512;28;20206;-69
2023/06/11 06:22:29;;;;;;;7.47;5.82;;;;;;;24.05;53.62;100531.88;4994582;28;20231;-70
2023/06/11 06:24:57;;;;;;;6.20;5.55;;;;;;;24.12;nan;100526.34;4997305;28;20315;-68
2023/06/11 06:27:28;;;;;;;6.50;5.80;;;;;;;24.24;52.84;100524.50;5001145;28;20233;-70
2023/06/11 06:29:56;;;;;;;7.68;5.82;;;;;;;24.22;52.70;100537.44;5003309;28;20237;-67
2023/06/11 06:32:23;;;;;;;6.80;5.68;;;;;;;24.24;52.41;100530.75;5009681;28;20714;-68
2023/06/11 06:34:51;;;;;;;6.57;5.53;;;;;;;24.23;52.26;100534.50;5005825;28;20221;-68
2023/06/11 06:37:20;;;;;;;6.75;5.70;;;;;;;24.27;52.34;100534.88;5003335;28;20288;-69
2023/06/11 06:39:48;;;;;;;7.40;6.18;;;;;;;24.31;51.90;100536.03;5003017;28;20205;-69
2023/06/11 06:42:15;;;;;;;7.70;6.05;;;;;;;24.34;52.82;100536.41;5007127;28;20221;-69
2023/06/11 06:44:43;;;;;;;9.32;5.88;;;;;;;24.42;52.93;100534.38;5009390;28;20300;-70
2023/06/11 06:47:11;;;;;;;9.55;7.00;;;;;;;24.45;53.21;100533.94;5003195;28;20282;-69
2023/06/11 06:49:38;;;;;;;13.40;6.13;;;;;;;24.55;52.68;100536.84;5002391;28;20228;-68
2023/06/11 06:52:09;;;;;;;9.02;5.38;;;;;;;24.60;51.74;100545.09;5000961;28;20814;-70
2023/06/11 06:54:38;;;;;;;9.43;5.47;;;;;;;24.63;51.83;100544.59;5003226;28;20387;-72
2023/06/11 06:57:07;;;;;;;10.85;5.60;;;;;;;24.65;51.52;100543.31;5004967;28;20222;-69
2023/06/11 06:59:34;;;;;;;10.45;6.20;;;;;;;24.70;51.93;100539.88;5017438;28;20600;-71
2023/06/11 07:02:02;;;;;;;6.28;5.68;;;;;;;24.73;51.65;100547.53;5007283;28;20321;-65
2023/06/11 07:04:30;;;;;;;6.68;5.88;;;;;;;24.78;51.56;100553.06;5013518;28;20260;-65
2023/06/11 07:06:57;;;;;;;8.45;5.38;;;;;;;24.82;51.40;100543.38;5012193;28;20679;-65
2023/06/11 07:09:25;;;;;;;7.50;5.85;;;;;;;24.84;51.05;100541.25;5014380;28;20336;-66
2023/06/11 07:11:54;;;;;;;9.65;5.70;;;;;;;24.88;50.87;100545.16;5006433;28;20256;-64
2023/06/11 07:14:22;;;;;;;12.88;5.63;;;;;;;24.90;52.00;100547.59;5009541;28;20300;-64
2023/06/11 07:16:50;;;;;;;6.03;4.68;;;;;;;24.92;51.38;100548.22;5011548;28;20205;-65
2023/06/11 07:19:17;;;;;;;8.40;5.10;;;;;;;25.01;52.09;100547.59;5019157;28;20674;-65
2023/06/11 07:21:45;;;;;;;10.02;5.75;;;;;;;25.09;52.07;100547.22;5007554;28;20229;-63
2023/06/11 07:24:13;;;;;;;8.90;5.53;;;;;;;25.13;52.30;100544.03;5017979;28;20594;-63
2023/06/11 07:26:42;;;;;;;6.22;5.18;;;;;;;25.28;51.59;100547.03;5005664;28;20206;-66
2023/06/11 07:29:11;;;;;;;7.90;5.68;;;;;;;25.37;50.64;100551.00;5004141;28;20293;-66
2023/06/11 07:31:39;;;;;;;6.55;5.65;;;;;;;25.38;50.81;100541.81;5006860;28;20236;-66
2023/06/11 07:34:07;;;;;;;10.07;6.13;;;;;;;25.45;50.16;100545.19;5015923;28;20705;-66
2023/06/11 07:36:35;;;;;;;8.57;5.90;;;;;;;25.47;50.29;100543.06;5003922;28;20229;-65
2023/06/11 07:39:03;;;;;;;10.77;5.05;;;;;;;25.64;48.88;100546.66;5016469;28;20267;-66
2023/06/11 07:41:31;;;;;;;7.38;5.50;;;;;;;25.69;48.37;100551.31;5015619;28;20248;-67
2023/06/11 07:43:58;;;;;;;7.15;5.30;;;;;;;25.74;48.29;100552.25;5009664;28;20202;-71
2023/06/11 07:46:27;;;;;;;6.40;5.22;;;;;;;25.82;46.84;100553.75;5015302;28;20229;-67
2023/06/11 07:48:55;;;;;;;6.43;5.40;;;;;;;25.82;46.10;100551.84;5011864;28;20275;-69
2023/06/11 07:51:23;;;;;;;6.50;4.88;;;;;;;25.94;45.93;100543.63;5007753;28;20206;-70
2023/06/11 07:53:51;;;;;;;8.45;5.05;;;;;;;26.02;45.42;100537.78;5011571;28;20688;-66
2023/06/11 07:56:19;;;;;;;5.93;4.95;;;;;;;26.11;45.05;100546.34;5007280;28;20548;-68
2023/06/11 07:58:47;;;;;;;7.53;4.60;;;;;;;26.13;44.81;100549.59;5004965;28;20201;-69
2023/06/11 08:01:14;;;;;;;6.40;5.10;;;;;;;26.08;45.27;100552.25;5003396;28;20296;-69
2023/06/11 08:03:44;;;;;;;7.78;5.22;;;;;;;26.16;45.59;100544.50;4998335;28;20210;-68
2023/06/11 08:06:12;;;;;;;8.07;4.90;;;;;;;26.37;44.81;100545.66;4997248;28;20224;-70
2023/06/11 08:08:40;;;;;;;8.93;5.60;;;;;;;26.37;45.04;100537.53;5002619;28;20206;-69
2023/06/11 08:11:08;;;;;;;6.43;5.00;;;;;;;26.34;45.09;100543.44;5003297;28;20595;-69
2023/06/11 08:13:35;;;;;;;7.00;5.10;;;;;;;26.43;45.67;100547.38;4996355;28;20410;-69
2023/06/11 08:16:03;;;;;;;5.40;4.70;;;;;;;26.49;45.24;100535.50;4999201;28;20206;-72
2023/06/11 08:18:31;;;;;;;5.70;4.65;;;;;;;26.66;43.99;100537.34;5001338;28;20210;-69
2023/06/11 08:21:02;;;;;;;6.93;4.72;;;;;;;26.82;43.24;100541.91;4999304;28;21489;-69
2023/06/11 08:23:30;;;;;;;6.68;4.78;;;;;;;26.77;43.30;100544.56;5000547;28;20419;-69
2023/06/11 08:25:58;;;;;;;7.47;5.13;;;;;;;27.05;41.84;100538.13;4999380;28;20205;-70
2023/06/11 08:28:28;;;;;;;7.78;5.15;;;;;;;27.08;41.81;100530.28;4999377;28;20333;-68
2023/06/11 08:30:56;;;;;;;8.07;4.72;;;;;;;27.13;41.96;100530.34;5001322;28;20209;-69
2023/06/11 08:33:24;;;;;;;7.07;5.03;;;;;;;27.14;41.77;100533.88;5001606;28;20684;-68
2023/06/11 08:35:52;;;;;;;8.00;5.40;;;;;;;27.20;40.29;100522.78;4998340;28;20198;-69
2023/06/11 08:38:21;;;;;;;7.57;4.60;;;;;;;27.15;41.44;100522.75;5000281;28;20271;-68
2023/06/11 08:40:49;;;;;;;8.48;4.60;;;;;;;27.18;41.56;100535.00;4994911;28;20198;-69
2023/06/11 08:43:17;;;;;;;9.57;5.07;;;;;;;27.34;40.55;100523.22;4997476;28;20321;-68
2023/06/11 08:45:46;;;;;;;9.18;5.13;;;;;;;27.60;39.41;100522.41;4997542;28;20214;-68
2023/06/11 08:48:16;;;;;;;7.30;4.80;;;;;;;27.59;39.51;100530.81;4996145;28;20296;-69
2023/06/11 08:50:44;;;;;;;6.47;5.28;;;;;;;27.59;39.45;100519.94;4998474;28;20806;-68
2023/06/11 08:53:14;;;;;;;7.55;4.97;;;;;;;27.74;38.46;100520.06;4999431;28;20585;-69
2023/06/11 08:55:45;;;;;;;7.93;5.10;;;;;;;27.74;39.10;100517.31;5002321;28;20260;-69
2023/06/11 08:58:13;;;;;;;8.05;4.97;;;;;;;27.93;38.24;100509.56;4998810;28;20202;-68
2023/06/11 09:00:41;;;;;;;8.48;4.68;;;;;;;27.91;38.01;100511.75;4997482;28;20197;-69
2023/06/11 09:03:11;;;;;;;6.95;4.50;;;;;;;28.10;36.90;100518.41;4999433;28;20230;-69
2023/06/11 09:05:39;;;;;;;7.10;4.97;;;;;;;28.07;37.78;100505.31;5000775;28;20210;-69
2023/06/11 09:08:08;;;;;;;8.25;4.85;;;;;;;28.04;38.43;100500.41;5000072;28;20209;-68
2023/06/11 09:10:49;;;;;;;8.60;4.80;;;;;;;28.19;36.61;100502.41;4997596;28;20217;-70
2023/06/11 09:13:18;;;;;;;7.07;4.80;;;;;;;28.31;37.03;100503.06;4997120;28;20213;-69
2023/06/11 09:15:49;;;;;;;5.70;4.78;;;;;;;28.34;37.57;100495.16;4997637;28;20233;-70
2023/06/11 09:18:22;;;;;;;7.35;4.75;;;;;;;28.45;37.36;100493.28;4997586;28;20588;-68
2023/06/11 09:20:52;;;;;;;7.93;4.82;;;;;;;28.65;35.92;100503.47;5002106;28;20202;-68
2023/06/11 09:23:27;;;;;;;9.63;4.75;;;;;;;28.64;34.92;100494.47;5002434;28;20555;-68
2023/06/11 09:26:00;;;;;;;7.90;4.60;;;;;;;28.68;35.83;100494.75;4998897;28;20291;-69
2023/06/11 09:28:32;;;;;;;8.70;4.38;;;;;;;28.68;33.85;100487.38;4998424;28;20276;-69
2023/06/11 09:31:01;;;;;;;15.18;4.13;;;;;;;28.77;33.58;100490.44;5003048;28;20216;-68
2023/06/11 09:33:30;;;;;;;5.40;4.40;;;;;;;28.94;33.58;100484.78;5000496;28;20210;-69
2023/06/11 09:36:00;;;;;;;6.47;4.50;;;;;;;29.03;33.55;100491.34;4998988;28;20313;-70
2023/06/11 09:38:28;;;;;;;7.80;4.55;;;;;;;29.16;33.01;100488.09;4998815;28;20225;-68
2023/06/11 09:41:00;;;;;;;6.43;4.45;;;;;;;29.19;33.93;100490.31;4998702;28;20269;-70
2023/06/11 09:43:28;;;;;;;7.70;4.30;;;;;;;29.17;34.07;100489.75;4999698;28;20268;-68
2023/06/11 09:45:56;;;;;;;5.60;3.88;;;;;;;29.29;33.25;100486.78;4999860;28;20316;-69
2023/06/11 09:48:26;;;;;;;14.32;4.55;;;;;;;29.34;32.17;100494.97;4998049;28;20223;-69
2023/06/11 09:50:54;;;;;;;8.43;4.45;;;;;;;29.26;32.12;100490.88;5001817;28;20737;-69
2023/06/11 09:53:23;;;;;;;7.78;4.43;;;;;;;29.26;30.67;100496.31;5001975;28;20201;-69
2023/06/11 09:55:52;;;;;;;6.97;4.00;;;;;;;29.42;29.50;100495.28;4999317;28;20204;-69
2023/06/11 09:58:40;;;;;;;7.65;4.35;;;;;;;29.42;30.80;100491.72;5000926;28;20269;-68
2023/06/11 10:01:08;;;;;;;8.73;5.05;;;;;;;29.65;30.74;100487.63;5002162;28;20201;-69
2023/06/11 10:03:36;;;;;;;6.60;4.82;;;;;;;29.68;29.86;100492.53;4996830;28;20582;-69
2023/06/11 10:06:08;;;;;;;7.75;4.43;;;;;;;29.77;30.75;100496.38;5000256;28;20232;-69
2023/06/11 10:08:37;;;;;;;5.82;4.03;;;;;;;29.95;28.94;100476.69;4998933;28;20205;-72
2023/06/11 10:11:05;;;;;;;7.65;4.45;;;;;;;29.91;29.59;100470.09;4997300;28;20208;-69
2023/06/11 10:13:34;;;;;;;7.75;4.22;;;;;;;30.08;29.12;100481.59;4997582;28;20217;-69
2023/06/11 10:16:08;;;;;;;7.20;3.85;;;;;;;30.09;29.17;100476.94;4998256;28;20268;-68
2023/06/11 10:18:36;;;;;;;6.57;4.13;;;;;;;30.07;29.26;100485.44;4998476;28;20205;-68
2023/06/11 10:21:05;;;;;;;9.07;4.18;;;;;;;30.25;28.51;100495.78;4999975;28;20201;-69
2023/06/11 10:23:37;;;;;;;8.65;4.57;;;;;;;30.20;28.32;100489.50;4998014;28;20229;-69
2023/06/11 10:26:05;;;;;;;11.32;4.78;;;;;;;30.21;28.51;100481.03;4998578;28;20214;-69
2023/06/11 10:28:37;;;;;;;8.30;4.50;;;;;;;30.34;28.56;100485.09;4998051;28;20234;-68
2023/06/11 10:31:06;;;;;;;8.73;4.47;;;;;;;30.42;27.37;100484.53;5003268;28;20198;-69
2023/06/11 10:33:42;;;;;;;5.57;4.15;;;;;;;30.44;28.27;100478.75;4999287;28;20214;-70
2023/06/11 10:36:10;;;;;;;7.30;4.90;;;;;;;30.55;27.56;100477.66;4994277;28;20214;-70
2023/06/11 10:38:38;;;;;;;7.25;4.38;;;;;;;30.57;27.48;100489.97;5000707;28;20539;-69
2023/06/11 10:41:06;;;;;;;7.95;4.43;;;;;;;30.61;28.60;100482.00;4998620;28;20283;-69
2023/06/11 10:43:37;;;;;;;8.88;4.50;;;;;;;30.54;28.09;100482.31;4998523;28;20275;-70
2023/06/11 10:46:11;;;;;;;7.05;4.60;;;;;;;30.83;27.23;100487.91;5000330;28;20308;-70
2023/06/11 10:48:50;;;;;;;6.90;4.70;;;;;;;30.79;26.67;100475.88;5000857;28;20213;-69
2023/06/11 10:51:18;;;;;;;7.35;4.32;;;;;;;30.82;26.95;100479.97;4997426;28;20201;-68
2023/06/11 10:53:55;;;;;;;6.75;4.15;;;;;;;30.89;27.68;100475.84;4980928;28;21212;-69
2023/06/11 10:56:23;;;;;;;7.80;4.07;;;;;;;30.80;27.98;100482.19;4995543;28;20215;-68
2023/06/11 10:58:53;;;;;;;6.25;4.38;;;;;;;30.95;27.53;100471.16;4996438;28;20259;-68
2023/06/11 11:01:22;;;;;;;6.07;4.40;;;;;;;30.92;27.57;100466.25;4998150;28;21130;-68
2023/06/11 11:03:51;;;;;;;5.53;4.07;;;;;;;31.03;27.52;100471.38;4999596;28;20240;-69
2023/06/11 11:06:26;;;;;;;5.80;4.40;;;;;;;31.23;27.44;100466.88;5001088;28;20235;-69
2023/06/11 11:08:56;;;;;;;6.00;4.22;;;;;;;31.17;27.18;100476.25;5002565;28;20201;-69
2023/06/11 11:11:24;;;;;;;9.07;4.57;;;;;;;31.31;25.76;100469.03;5001072;28;20313;-69
2023/06/11 11:13:52;;;;;;;6.63;4.22;;;;;;;31.37;26.30;100471.44;5000908;28;20213;-73
2023/06/11 11:16:20;;;;;;;11.73;4.65;;;;;;;31.31;26.97;100467.09;4998449;28;20206;-68
2023/06/11 11:18:50;;;;;;;6.88;4.47;;;;;;;31.32;27.00;100459.69;5001198;28;20672;-70
2023/06/11 11:21:18;;;;;;;8.63;4.75;;;;;;;31.25;27.15;100459.19;4998059;28;20241;-70
2023/06/11 11:23:48;;;;;;;6.10;4.25;;;;;;;31.47;26.80;100459.59;4998143;28;20233;-71
2023/06/11 11:26:18;;;;;;;5.03;4.18;;;;;;;31.73;26.15;100450.06;4999463;28;20265;-70
2023/06/11 11:28:46;;;;;;;5.55;4.45;;;;;;;31.61;26.89;100455.06;4999665;28;20239;-69
2023/06/11 11:31:17;;;;;;;5.78;4.78;;;;;;;31.88;27.10;100461.97;5002706;28;20202;-69